sensor_id;sensor_type;location;lat;lon;timestamp;temperature;humidity
57390;DHT22;43217;52.694;6.214;2022-09-28T00:01:48;9.10;99.90
57390;DHT22;43217;52.694;6.214;2022-09-28T00:04:14;9.10;99.90
57390;DHT22;43217;52.694;6.214;2022-09-28T00:06:40;9.10;99.90
57390;DHT22;43217;52.694;6.214;2022-09-28T00:09:06;9.20;99.90
57390;DHT22;43217;52.694;6.214;2022-09-28T00:11:36;9.20;99.90
57390;DHT22;43217;52.694;6.214;2022-09-28T00:14:02;9.20;99.90
57390;DHT22;43217;52.694;6.214;2022-09-28T00:16:31;9.20;99.90
57390;DHT22;43217;52.694;6.214;2022-09-28T00:19:02;9.20;99.90
57390;DHT22;43217;52.694;6.214;2022-09-28T00:21:33;9.10;99.90
57390;DHT22;43217;52.694;6.214;2022-09-28T00:24:00;9.10;99.90
57390;DHT22;43217;52.694;6.214;2022-09-28T00:26:48;9.10;99.90
57390;DHT22;43217;52.694;6.214;2022-09-28T00:29:22;9.10;99.90
57390;DHT22;43217;52.694;6.214;2022-09-28T00:31:53;9.10;99.90
57390;DHT22;43217;52.694;6.214;2022-09-28T00:34:24;9.10;99.90
57390;DHT22;43217;52.694;6.214;2022-09-28T00:36:50;9.10;99.90
57390;DHT22;43217;52.694;6.214;2022-09-28T00:39:16;9.10;99.90
57390;DHT22;43217;52.694;6.214;2022-09-28T00:41:43;9.10;99.90
57390;DHT22;43217;52.694;6.214;2022-09-28T00:44:37;9.10;99.90
57390;DHT22;43217;52.694;6.214;2022-09-28T00:50:10;9.10;99.90
57390;DHT22;43217;52.694;6.214;2022-09-28T00:56:10;9.10;99.90
57390;DHT22;43217;52.694;6.214;2022-09-28T00:58:22;9.00;99.90
57390;DHT22;43217;52.694;6.214;2022-09-28T01:00:49;9.00;99.90
57390;DHT22;43217;52.694;6.214;2022-09-28T01:03:15;9.00;99.90
57390;DHT22;43217;52.694;6.214;2022-09-28T01:05:42;9.00;99.90
57390;DHT22;43217;52.694;6.214;2022-09-28T01:08:09;9.00;99.90
57390;DHT22;43217;52.694;6.214;2022-09-28T01:10:35;9.10;99.90
57390;DHT22;43217;52.694;6.214;2022-09-28T01:13:03;9.00;99.90
57390;DHT22;43217;52.694;6.214;2022-09-28T01:15:28;9.00;99.90
57390;DHT22;43217;52.694;6.214;2022-09-28T01:18:10;9.00;99.90
57390;DHT22;43217;52.694;6.214;2022-09-28T01:23:41;9.00;99.90
57390;DHT22;43217;52.694;6.214;2022-09-28T01:29:00;8.90;99.90
57390;DHT22;43217;52.694;6.214;2022-09-28T01:31:30;8.90;99.90
57390;DHT22;43217;52.694;6.214;2022-09-28T01:34:04;8.90;99.90
57390;DHT22;43217;52.694;6.214;2022-09-28T01:36:44;8.90;99.90
57390;DHT22;43217;52.694;6.214;2022-09-28T01:39:41;8.80;99.90
57390;DHT22;43217;52.694;6.214;2022-09-28T01:42:14;8.80;99.90
57390;DHT22;43217;52.694;6.214;2022-09-28T01:44:44;8.80;99.90
57390;DHT22;43217;52.694;6.214;2022-09-28T01:47:14;8.80;99.90
57390;DHT22;43217;52.694;6.214;2022-09-28T01:49:54;8.80;99.90
57390;DHT22;43217;52.694;6.214;2022-09-28T01:52:28;8.80;99.90
57390;DHT22;43217;52.694;6.214;2022-09-28T01:57:29;8.80;99.90
57390;DHT22;43217;52.694;6.214;2022-09-28T02:00:03;8.90;99.90
57390;DHT22;43217;52.694;6.214;2022-09-28T02:03:12;8.90;99.90
57390;DHT22;43217;52.694;6.214;2022-09-28T02:05:39;8.90;99.90
57390;DHT22;43217;52.694;6.214;2022-09-28T02:08:14;8.90;99.90
57390;DHT22;43217;52.694;6.214;2022-09-28T02:10:56;9.00;99.90
57390;DHT22;43217;52.694;6.214;2022-09-28T02:13:32;8.90;99.90
57390;DHT22;43217;52.694;6.214;2022-09-28T02:16:04;8.90;99.90
57390;DHT22;43217;52.694;6.214;2022-09-28T02:18:31;8.80;99.90
57390;DHT22;43217;52.694;6.214;2022-09-28T02:21:10;8.90;99.90
57390;DHT22;43217;52.694;6.214;2022-09-28T02:23:38;8.80;99.90
57390;DHT22;43217;52.694;6.214;2022-09-28T02:26:08;8.80;99.90
57390;DHT22;43217;52.694;6.214;2022-09-28T02:28:36;8.80;99.90
57390;DHT22;43217;52.694;6.214;2022-09-28T02:31:01;8.80;99.90
57390;DHT22;43217;52.694;6.214;2022-09-28T02:33:32;8.80;99.90
57390;DHT22;43217;52.694;6.214;2022-09-28T02:36:00;8.80;99.90
57390;DHT22;43217;52.694;6.214;2022-09-28T02:38:29;8.80;99.90
57390;DHT22;43217;52.694;6.214;2022-09-28T02:43:37;8.80;99.90
57390;DHT22;43217;52.694;6.214;2022-09-28T02:46:39;8.90;99.90
57390;DHT22;43217;52.694;6.214;2022-09-28T02:49:20;8.90;99.90
57390;DHT22;43217;52.694;6.214;2022-09-28T02:59:52;9.00;99.90
57390;DHT22;43217;52.694;6.214;2022-09-28T03:02:30;9.00;99.90
57390;DHT22;43217;52.694;6.214;2022-09-28T03:05:00;9.00;99.90
57390;DHT22;43217;52.694;6.214;2022-09-28T03:08:31;9.00;99.90
57390;DHT22;43217;52.694;6.214;2022-09-28T03:10:36;9.00;99.90
57390;DHT22;43217;52.694;6.214;2022-09-28T03:13:03;9.00;99.90
57390;DHT22;43217;52.694;6.214;2022-09-28T03:15:32;8.90;99.90
57390;DHT22;43217;52.694;6.214;2022-09-28T03:17:58;8.90;99.90
57390;DHT22;43217;52.694;6.214;2022-09-28T03:20:28;8.90;99.90
57390;DHT22;43217;52.694;6.214;2022-09-28T03:22:55;8.90;99.90
57390;DHT22;43217;52.694;6.214;2022-09-28T03:25:20;8.90;99.90
57390;DHT22;43217;52.694;6.214;2022-09-28T03:27:58;8.90;99.90
57390;DHT22;43217;52.694;6.214;2022-09-28T03:30:23;8.90;99.90
57390;DHT22;43217;52.694;6.214;2022-09-28T03:32:59;8.90;99.90
57390;DHT22;43217;52.694;6.214;2022-09-28T03:35:25;8.80;99.90
57390;DHT22;43217;52.694;6.214;2022-09-28T03:37:57;8.80;99.90
57390;DHT22;43217;52.694;6.214;2022-09-28T03:40:23;8.80;99.90
57390;DHT22;43217;52.694;6.214;2022-09-28T03:42:48;8.80;99.90
57390;DHT22;43217;52.694;6.214;2022-09-28T03:45:14;8.80;99.90
57390;DHT22;43217;52.694;6.214;2022-09-28T03:47:44;8.80;99.90
57390;DHT22;43217;52.694;6.214;2022-09-28T03:50:10;8.90;99.90
57390;DHT22;43217;52.694;6.214;2022-09-28T03:52:36;8.90;99.90
57390;DHT22;43217;52.694;6.214;2022-09-28T03:55:01;8.90;99.90
57390;DHT22;43217;52.694;6.214;2022-09-28T03:57:27;8.90;99.90
57390;DHT22;43217;52.694;6.214;2022-09-28T03:59:52;8.90;99.90
57390;DHT22;43217;52.694;6.214;2022-09-28T04:02:18;8.80;99.90
57390;DHT22;43217;52.694;6.214;2022-09-28T04:04:43;8.80;99.90
57390;DHT22;43217;52.694;6.214;2022-09-28T04:07:09;8.80;99.90
57390;DHT22;43217;52.694;6.214;2022-09-28T04:09:35;8.90;99.90
57390;DHT22;43217;52.694;6.214;2022-09-28T04:12:01;8.80;99.90
57390;DHT22;43217;52.694;6.214;2022-09-28T04:14:26;8.80;99.90
57390;DHT22;43217;52.694;6.214;2022-09-28T04:16:52;8.80;99.90
57390;DHT22;43217;52.694;6.214;2022-09-28T04:19:20;8.90;99.90
57390;DHT22;43217;52.694;6.214;2022-09-28T04:21:47;8.90;99.90
57390;DHT22;43217;52.694;6.214;2022-09-28T04:24:14;8.90;99.90
57390;DHT22;43217;52.694;6.214;2022-09-28T04:26:40;8.90;99.90
57390;DHT22;43217;52.694;6.214;2022-09-28T04:29:08;8.90;99.90
57390;DHT22;43217;52.694;6.214;2022-09-28T04:34:06;8.90;99.90
57390;DHT22;43217;52.694;6.214;2022-09-28T04:36:31;8.90;99.90
57390;DHT22;43217;52.694;6.214;2022-09-28T04:38:57;8.90;99.90
57390;DHT22;43217;52.694;6.214;2022-09-28T04:41:22;8.90;99.90
57390;DHT22;43217;52.694;6.214;2022-09-28T04:43:49;8.90;99.90
57390;DHT22;43217;52.694;6.214;2022-09-28T04:46:14;8.90;99.90
57390;DHT22;43217;52.694;6.214;2022-09-28T04:48:40;8.90;99.90
57390;DHT22;43217;52.694;6.214;2022-09-28T04:51:06;8.90;99.90
57390;DHT22;43217;52.694;6.214;2022-09-28T04:53:32;8.90;99.90
57390;DHT22;43217;52.694;6.214;2022-09-28T04:56:10;8.90;99.90
57390;DHT22;43217;52.694;6.214;2022-09-28T04:58:36;8.90;99.90
57390;DHT22;43217;52.694;6.214;2022-09-28T05:01:04;8.80;99.90
57390;DHT22;43217;52.694;6.214;2022-09-28T05:03:31;8.80;99.90
57390;DHT22;43217;52.694;6.214;2022-09-28T05:06:01;8.80;99.90
57390;DHT22;43217;52.694;6.214;2022-09-28T05:08:37;8.80;99.90
57390;DHT22;43217;52.694;6.214;2022-09-28T05:11:05;8.90;99.90
57390;DHT22;43217;52.694;6.214;2022-09-28T05:13:31;8.80;99.90
57390;DHT22;43217;52.694;6.214;2022-09-28T05:15:57;8.80;99.90
57390;DHT22;43217;52.694;6.214;2022-09-28T05:18:23;8.80;99.90
57390;DHT22;43217;52.694;6.214;2022-09-28T05:20:49;8.80;99.90
57390;DHT22;43217;52.694;6.214;2022-09-28T05:23:15;8.90;99.90
57390;DHT22;43217;52.694;6.214;2022-09-28T05:25:42;8.90;99.90
57390;DHT22;43217;52.694;6.214;2022-09-28T05:28:08;8.90;99.90
57390;DHT22;43217;52.694;6.214;2022-09-28T05:30:34;8.80;99.90
57390;DHT22;43217;52.694;6.214;2022-09-28T05:33:00;8.80;99.90
57390;DHT22;43217;52.694;6.214;2022-09-28T05:35:26;8.80;99.90
57390;DHT22;43217;52.694;6.214;2022-09-28T05:37:51;8.90;99.90
57390;DHT22;43217;52.694;6.214;2022-09-28T05:40:17;8.90;99.90
57390;DHT22;43217;52.694;6.214;2022-09-28T05:42:43;8.90;99.90
57390;DHT22;43217;52.694;6.214;2022-09-28T05:45:09;8.90;99.90
57390;DHT22;43217;52.694;6.214;2022-09-28T05:47:40;8.80;99.90
57390;DHT22;43217;52.694;6.214;2022-09-28T05:50:07;8.90;99.90
57390;DHT22;43217;52.694;6.214;2022-09-28T05:52:33;8.80;99.90
57390;DHT22;43217;52.694;6.214;2022-09-28T05:54:59;8.90;99.90
57390;DHT22;43217;52.694;6.214;2022-09-28T05:57:26;8.80;99.90
57390;DHT22;43217;52.694;6.214;2022-09-28T05:59:51;8.80;99.90
57390;DHT22;43217;52.694;6.214;2022-09-28T06:02:17;8.80;99.90
57390;DHT22;43217;52.694;6.214;2022-09-28T06:04:43;8.80;99.90
57390;DHT22;43217;52.694;6.214;2022-09-28T06:07:08;8.80;99.90
57390;DHT22;43217;52.694;6.214;2022-09-28T06:09:34;8.80;99.90
57390;DHT22;43217;52.694;6.214;2022-09-28T06:12:00;8.90;99.90
57390;DHT22;43217;52.694;6.214;2022-09-28T06:14:25;8.90;99.90
57390;DHT22;43217;52.694;6.214;2022-09-28T06:16:51;8.90;99.90
57390;DHT22;43217;52.694;6.214;2022-09-28T06:19:17;8.90;99.90
57390;DHT22;43217;52.694;6.214;2022-09-28T06:21:43;8.90;99.90
57390;DHT22;43217;52.694;6.214;2022-09-28T06:24:08;8.80;99.90
57390;DHT22;43217;52.694;6.214;2022-09-28T06:26:34;8.80;99.90
57390;DHT22;43217;52.694;6.214;2022-09-28T06:29:00;8.80;99.90
57390;DHT22;43217;52.694;6.214;2022-09-28T06:31:26;8.90;99.90
57390;DHT22;43217;52.694;6.214;2022-09-28T06:33:55;8.90;99.90
57390;DHT22;43217;52.694;6.214;2022-09-28T06:36:21;8.90;99.90
57390;DHT22;43217;52.694;6.214;2022-09-28T06:38:47;9.00;99.90
57390;DHT22;43217;52.694;6.214;2022-09-28T06:41:13;9.00;99.90
57390;DHT22;43217;52.694;6.214;2022-09-28T06:43:39;9.10;99.90
57390;DHT22;43217;52.694;6.214;2022-09-28T06:46:06;9.10;99.90
57390;DHT22;43217;52.694;6.214;2022-09-28T06:48:32;9.10;99.90
57390;DHT22;43217;52.694;6.214;2022-09-28T06:51:00;9.20;99.90
57390;DHT22;43217;52.694;6.214;2022-09-28T06:53:27;9.20;99.90
57390;DHT22;43217;52.694;6.214;2022-09-28T06:55:53;9.30;99.90
57390;DHT22;43217;52.694;6.214;2022-09-28T06:58:21;9.40;99.90
57390;DHT22;43217;52.694;6.214;2022-09-28T07:00:49;9.40;99.90
57390;DHT22;43217;52.694;6.214;2022-09-28T07:03:18;9.40;99.90
57390;DHT22;43217;52.694;6.214;2022-09-28T07:05:49;9.40;99.90
57390;DHT22;43217;52.694;6.214;2022-09-28T07:08:16;9.50;99.90
57390;DHT22;43217;52.694;6.214;2022-09-28T07:10:47;9.50;99.90
57390;DHT22;43217;52.694;6.214;2022-09-28T07:13:27;9.50;99.90
57390;DHT22;43217;52.694;6.214;2022-09-28T07:15:58;9.40;99.90
57390;DHT22;43217;52.694;6.214;2022-09-28T07:18:34;9.50;99.90
57390;DHT22;43217;52.694;6.214;2022-09-28T07:20:59;9.50;99.90
57390;DHT22;43217;52.694;6.214;2022-09-28T07:23:27;9.50;99.90
57390;DHT22;43217;52.694;6.214;2022-09-28T07:25:55;9.60;99.90
57390;DHT22;43217;52.694;6.214;2022-09-28T07:28:23;9.60;99.90
57390;DHT22;43217;52.694;6.214;2022-09-28T07:30:48;9.70;99.90
57390;DHT22;43217;52.694;6.214;2022-09-28T07:33:15;9.70;99.90
57390;DHT22;43217;52.694;6.214;2022-09-28T07:35:49;9.70;99.90
57390;DHT22;43217;52.694;6.214;2022-09-28T07:38:15;9.80;99.90
57390;DHT22;43217;52.694;6.214;2022-09-28T07:40:40;9.80;99.90
57390;DHT22;43217;52.694;6.214;2022-09-28T07:43:24;9.80;99.90
57390;DHT22;43217;52.694;6.214;2022-09-28T07:45:53;9.90;99.90
57390;DHT22;43217;52.694;6.214;2022-09-28T07:48:20;10.10;99.90
57390;DHT22;43217;52.694;6.214;2022-09-28T07:50:54;10.30;99.90
57390;DHT22;43217;52.694;6.214;2022-09-28T07:53:23;10.50;99.90
57390;DHT22;43217;52.694;6.214;2022-09-28T07:55:53;10.70;99.90
57390;DHT22;43217;52.694;6.214;2022-09-28T07:58:19;10.90;99.90
57390;DHT22;43217;52.694;6.214;2022-09-28T08:00:46;11.10;99.90
57390;DHT22;43217;52.694;6.214;2022-09-28T08:03:14;11.20;99.90
57390;DHT22;43217;52.694;6.214;2022-09-28T08:05:40;11.30;99.90
57390;DHT22;43217;52.694;6.214;2022-09-28T08:08:14;11.30;99.90
57390;DHT22;43217;52.694;6.214;2022-09-28T08:10:44;11.10;99.90
57390;DHT22;43217;52.694;6.214;2022-09-28T08:13:09;11.00;99.90
57390;DHT22;43217;52.694;6.214;2022-09-28T08:15:35;11.00;99.90
57390;DHT22;43217;52.694;6.214;2022-09-28T08:18:05;11.00;99.90
57390;DHT22;43217;52.694;6.214;2022-09-28T08:20:32;11.10;99.90
57390;DHT22;43217;52.694;6.214;2022-09-28T08:23:16;11.00;99.90
57390;DHT22;43217;52.694;6.214;2022-09-28T08:25:46;10.90;99.90
57390;DHT22;43217;52.694;6.214;2022-09-28T08:28:13;11.40;99.90
57390;DHT22;43217;52.694;6.214;2022-09-28T08:30:42;12.10;99.90
57390;DHT22;43217;52.694;6.214;2022-09-28T08:33:10;12.60;99.90
57390;DHT22;43217;52.694;6.214;2022-09-28T08:35:43;13.40;99.90
57390;DHT22;43217;52.694;6.214;2022-09-28T08:38:15;13.50;99.90
57390;DHT22;43217;52.694;6.214;2022-09-28T08:41:32;13.50;99.90
57390;DHT22;43217;52.694;6.214;2022-09-28T08:44:18;12.80;99.90
57390;DHT22;43217;52.694;6.214;2022-09-28T08:47:01;12.30;99.90
57390;DHT22;43217;52.694;6.214;2022-09-28T08:49:35;11.80;99.90
57390;DHT22;43217;52.694;6.214;2022-09-28T08:55:12;11.40;99.90
57390;DHT22;43217;52.694;6.214;2022-09-28T08:57:51;11.40;99.90
57390;DHT22;43217;52.694;6.214;2022-09-28T09:00:24;11.40;99.90
57390;DHT22;43217;52.694;6.214;2022-09-28T09:02:54;11.50;99.90
57390;DHT22;43217;52.694;6.214;2022-09-28T09:05:27;11.60;99.90
57390;DHT22;43217;52.694;6.214;2022-09-28T09:08:03;11.60;99.90
57390;DHT22;43217;52.694;6.214;2022-09-28T09:18:54;11.60;99.90
57390;DHT22;43217;52.694;6.214;2022-09-28T09:21:59;11.70;99.90
57390;DHT22;43217;52.694;6.214;2022-09-28T09:27:44;11.90;99.90
57390;DHT22;43217;52.694;6.214;2022-09-28T09:30:14;12.00;99.90
57390;DHT22;43217;52.694;6.214;2022-09-28T09:36:03;12.30;99.90
57390;DHT22;43217;52.694;6.214;2022-09-28T09:38:54;12.50;99.90
57390;DHT22;43217;52.694;6.214;2022-09-28T09:41:31;12.60;99.90
57390;DHT22;43217;52.694;6.214;2022-09-28T09:47:08;12.70;99.90
57390;DHT22;43217;52.694;6.214;2022-09-28T09:52:47;13.00;99.90
57390;DHT22;43217;52.694;6.214;2022-09-28T09:55:28;13.00;99.90
57390;DHT22;43217;52.694;6.214;2022-09-28T10:00:28;13.10;99.90
57390;DHT22;43217;52.694;6.214;2022-09-28T10:02:56;13.20;99.90
57390;DHT22;43217;52.694;6.214;2022-09-28T10:05:24;13.30;99.90
57390;DHT22;43217;52.694;6.214;2022-09-28T10:10:52;13.40;99.90
57390;DHT22;43217;52.694;6.214;2022-09-28T10:13:18;13.40;99.90
57390;DHT22;43217;52.694;6.214;2022-09-28T10:15:44;13.40;99.90
57390;DHT22;43217;52.694;6.214;2022-09-28T10:18:13;13.50;99.90
57390;DHT22;43217;52.694;6.214;2022-09-28T10:20:42;13.60;99.90
57390;DHT22;43217;52.694;6.214;2022-09-28T10:23:21;13.80;99.90
57390;DHT22;43217;52.694;6.214;2022-09-28T10:25:53;14.00;99.90
57390;DHT22;43217;52.694;6.214;2022-09-28T10:28:29;14.10;99.90
57390;DHT22;43217;52.694;6.214;2022-09-28T10:30:57;14.10;99.90
57390;DHT22;43217;52.694;6.214;2022-09-28T10:33:31;14.00;99.90
57390;DHT22;43217;52.694;6.214;2022-09-28T10:36:01;14.10;99.90
57390;DHT22;43217;52.694;6.214;2022-09-28T10:38:29;14.20;99.90
57390;DHT22;43217;52.694;6.214;2022-09-28T10:41:00;14.20;99.90
57390;DHT22;43217;52.694;6.214;2022-09-28T10:43:38;14.20;99.90
57390;DHT22;43217;52.694;6.214;2022-09-28T10:46:19;14.10;99.90
57390;DHT22;43217;52.694;6.214;2022-09-28T10:49:02;14.20;99.90
57390;DHT22;43217;52.694;6.214;2022-09-28T10:51:51;14.20;99.90
57390;DHT22;43217;52.694;6.214;2022-09-28T10:54:30;14.30;99.90
57390;DHT22;43217;52.694;6.214;2022-09-28T10:56:57;14.30;99.90
57390;DHT22;43217;52.694;6.214;2022-09-28T11:02:01;14.40;99.90
57390;DHT22;43217;52.694;6.214;2022-09-28T11:04:30;14.50;99.90
57390;DHT22;43217;52.694;6.214;2022-09-28T11:07:00;14.50;99.90
57390;DHT22;43217;52.694;6.214;2022-09-28T11:09:31;14.50;99.90
57390;DHT22;43217;52.694;6.214;2022-09-28T11:11:58;14.50;99.90
57390;DHT22;43217;52.694;6.214;2022-09-28T11:14:35;14.50;99.90
57390;DHT22;43217;52.694;6.214;2022-09-28T11:17:26;14.50;99.90
57390;DHT22;43217;52.694;6.214;2022-09-28T11:19:53;14.60;99.90
57390;DHT22;43217;52.694;6.214;2022-09-28T11:24:49;14.70;99.90
57390;DHT22;43217;52.694;6.214;2022-09-28T11:27:23;14.80;99.90
57390;DHT22;43217;52.694;6.214;2022-09-28T11:29:57;14.80;99.90
57390;DHT22;43217;52.694;6.214;2022-09-28T11:32:25;14.80;99.90
57390;DHT22;43217;52.694;6.214;2022-09-28T11:34:56;14.70;99.90
57390;DHT22;43217;52.694;6.214;2022-09-28T11:40:40;14.80;99.90
57390;DHT22;43217;52.694;6.214;2022-09-28T11:46:44;14.70;99.90
57390;DHT22;43217;52.694;6.214;2022-09-28T11:52:15;14.40;99.90
57390;DHT22;43217;52.694;6.214;2022-09-28T11:54:55;14.20;99.90
57390;DHT22;43217;52.694;6.214;2022-09-28T11:57:27;14.10;99.90
57390;DHT22;43217;52.694;6.214;2022-09-28T12:00:06;14.00;99.90
57390;DHT22;43217;52.694;6.214;2022-09-28T12:05:25;13.90;99.90
57390;DHT22;43217;52.694;6.214;2022-09-28T12:08:28;13.70;99.90
57390;DHT22;43217;52.694;6.214;2022-09-28T12:11:17;13.70;99.90
57390;DHT22;43217;52.694;6.214;2022-09-28T12:13:46;13.50;99.90
57390;DHT22;43217;52.694;6.214;2022-09-28T12:16:25;13.40;99.90
57390;DHT22;43217;52.694;6.214;2022-09-28T12:19:02;13.40;99.90
57390;DHT22;43217;52.694;6.214;2022-09-28T12:22:08;13.30;99.90
57390;DHT22;43217;52.694;6.214;2022-09-28T12:24:39;13.20;99.90
57390;DHT22;43217;52.694;6.214;2022-09-28T12:29:44;13.10;99.90
57390;DHT22;43217;52.694;6.214;2022-09-28T12:34:56;13.10;99.90
57390;DHT22;43217;52.694;6.214;2022-09-28T12:37:35;13.10;99.90
57390;DHT22;43217;52.694;6.214;2022-09-28T12:59:35;13.30;99.90
57390;DHT22;43217;52.694;6.214;2022-09-28T13:07:35;13.40;99.90
57390;DHT22;43217;52.694;6.214;2022-09-28T13:19:00;13.40;99.90
57390;DHT22;43217;52.694;6.214;2022-09-28T13:24:42;13.70;99.90
57390;DHT22;43217;52.694;6.214;2022-09-28T13:27:14;13.80;99.90
57390;DHT22;43217;52.694;6.214;2022-09-28T13:29:42;14.00;99.90
57390;DHT22;43217;52.694;6.214;2022-09-28T13:32:09;14.10;99.90
57390;DHT22;43217;52.694;6.214;2022-09-28T13:34:37;14.20;99.90
57390;DHT22;43217;52.694;6.214;2022-09-28T13:42:22;14.40;99.90
57390;DHT22;43217;52.694;6.214;2022-09-28T13:50:43;14.40;99.90
57390;DHT22;43217;52.694;6.214;2022-09-28T13:56:33;14.20;99.90
57390;DHT22;43217;52.694;6.214;2022-09-28T13:59:28;14.10;99.90
57390;DHT22;43217;52.694;6.214;2022-09-28T14:04:55;14.10;99.90
57390;DHT22;43217;52.694;6.214;2022-09-28T14:10:23;14.20;99.90
57390;DHT22;43217;52.694;6.214;2022-09-28T14:13:08;14.20;99.90
57390;DHT22;43217;52.694;6.214;2022-09-28T14:23:33;14.10;99.90
57390;DHT22;43217;52.694;6.214;2022-09-28T14:31:54;14.10;99.90
57390;DHT22;43217;52.694;6.214;2022-09-28T14:34:47;14.20;99.90
57390;DHT22;43217;52.694;6.214;2022-09-28T14:37:23;14.20;99.90
57390;DHT22;43217;52.694;6.214;2022-09-28T14:40:30;14.30;99.90
57390;DHT22;43217;52.694;6.214;2022-09-28T14:43:25;14.40;99.90
57390;DHT22;43217;52.694;6.214;2022-09-28T14:49:00;14.50;99.90
57390;DHT22;43217;52.694;6.214;2022-09-28T14:59:26;14.60;99.90
57390;DHT22;43217;52.694;6.214;2022-09-28T15:04:37;14.50;99.90
57390;DHT22;43217;52.694;6.214;2022-09-28T15:07:04;14.40;99.90
57390;DHT22;43217;52.694;6.214;2022-09-28T15:09:36;14.40;99.90
57390;DHT22;43217;52.694;6.214;2022-09-28T15:12:12;14.50;99.90
57390;DHT22;43217;52.694;6.214;2022-09-28T15:15:02;14.50;99.90
57390;DHT22;43217;52.694;6.214;2022-09-28T15:17:36;14.60;99.90
57390;DHT22;43217;52.694;6.214;2022-09-28T15:20:28;14.70;99.90
57390;DHT22;43217;52.694;6.214;2022-09-28T15:22:57;14.70;99.90
57390;DHT22;43217;52.694;6.214;2022-09-28T15:25:29;14.70;99.90
57390;DHT22;43217;52.694;6.214;2022-09-28T15:27:58;14.70;99.90
57390;DHT22;43217;52.694;6.214;2022-09-28T15:32:55;14.60;99.90
57390;DHT22;43217;52.694;6.214;2022-09-28T15:35:26;14.60;99.90
57390;DHT22;43217;52.694;6.214;2022-09-28T15:37:53;14.50;99.90
57390;DHT22;43217;52.694;6.214;2022-09-28T15:40:36;14.50;99.90
57390;DHT22;43217;52.694;6.214;2022-09-28T15:43:23;14.40;99.90
57390;DHT22;43217;52.694;6.214;2022-09-28T15:46:11;14.20;99.90
57390;DHT22;43217;52.694;6.214;2022-09-28T15:48:54;14.10;99.90
57390;DHT22;43217;52.694;6.214;2022-09-28T15:51:22;13.90;99.90
57390;DHT22;43217;52.694;6.214;2022-09-28T15:53:52;13.80;99.90
57390;DHT22;43217;52.694;6.214;2022-09-28T15:56:20;13.60;99.90
57390;DHT22;43217;52.694;6.214;2022-09-28T16:01:38;13.60;99.90
57390;DHT22;43217;52.694;6.214;2022-09-28T16:04:37;13.60;99.90
57390;DHT22;43217;52.694;6.214;2022-09-28T16:12:19;13.40;99.90
57390;DHT22;43217;52.694;6.214;2022-09-28T16:14:50;13.40;99.90
57390;DHT22;43217;52.694;6.214;2022-09-28T16:17:27;13.40;99.90
57390;DHT22;43217;52.694;6.214;2022-09-28T16:19:57;13.40;99.90
57390;DHT22;43217;52.694;6.214;2022-09-28T16:22:26;13.30;99.90
57390;DHT22;43217;52.694;6.214;2022-09-28T16:24:55;13.30;99.90
57390;DHT22;43217;52.694;6.214;2022-09-28T16:27:25;13.30;99.90
57390;DHT22;43217;52.694;6.214;2022-09-28T16:32:57;13.20;99.90
57390;DHT22;43217;52.694;6.214;2022-09-28T16:35:25;13.20;99.90
57390;DHT22;43217;52.694;6.214;2022-09-28T16:38:09;13.10;99.90
57390;DHT22;43217;52.694;6.214;2022-09-28T16:40:42;13.20;99.90
57390;DHT22;43217;52.694;6.214;2022-09-28T16:43:35;13.10;99.90
57390;DHT22;43217;52.694;6.214;2022-09-28T16:46:10;13.10;99.90
57390;DHT22;43217;52.694;6.214;2022-09-28T16:48:41;13.00;99.90
57390;DHT22;43217;52.694;6.214;2022-09-28T16:51:13;12.90;99.90
57390;DHT22;43217;52.694;6.214;2022-09-28T16:53:39;12.90;99.90
57390;DHT22;43217;52.694;6.214;2022-09-28T16:56:25;12.90;99.90
57390;DHT22;43217;52.694;6.214;2022-09-28T16:58:51;12.80;99.90
57390;DHT22;43217;52.694;6.214;2022-09-28T17:01:20;12.70;99.90
57390;DHT22;43217;52.694;6.214;2022-09-28T17:03:45;12.70;99.90
57390;DHT22;43217;52.694;6.214;2022-09-28T17:06:14;12.70;99.90
57390;DHT22;43217;52.694;6.214;2022-09-28T17:08:40;12.60;99.90
57390;DHT22;43217;52.694;6.214;2022-09-28T17:11:13;12.60;99.90
57390;DHT22;43217;52.694;6.214;2022-09-28T17:13:42;12.50;99.90
57390;DHT22;43217;52.694;6.214;2022-09-28T17:16:13;12.50;99.90
57390;DHT22;43217;52.694;6.214;2022-09-28T17:18:40;12.50;99.90
57390;DHT22;43217;52.694;6.214;2022-09-28T17:21:10;12.40;99.90
57390;DHT22;43217;52.694;6.214;2022-09-28T17:23:36;12.40;99.90
57390;DHT22;43217;52.694;6.214;2022-09-28T17:26:03;12.30;99.90
57390;DHT22;43217;52.694;6.214;2022-09-28T17:28:31;12.20;99.90
57390;DHT22;43217;52.694;6.214;2022-09-28T17:30:57;12.20;99.90
57390;DHT22;43217;52.694;6.214;2022-09-28T17:33:23;12.10;99.90
57390;DHT22;43217;52.694;6.214;2022-09-28T17:35:51;12.10;99.90
57390;DHT22;43217;52.694;6.214;2022-09-28T17:38:17;12.10;99.90
57390;DHT22;43217;52.694;6.214;2022-09-28T17:40:43;12.00;99.90
57390;DHT22;43217;52.694;6.214;2022-09-28T17:43:10;12.00;99.90
57390;DHT22;43217;52.694;6.214;2022-09-28T17:45:37;11.90;99.90
57390;DHT22;43217;52.694;6.214;2022-09-28T17:48:17;11.80;99.90
57390;DHT22;43217;52.694;6.214;2022-09-28T17:50:44;11.80;99.90
57390;DHT22;43217;52.694;6.214;2022-09-28T17:53:11;11.70;99.90
57390;DHT22;43217;52.694;6.214;2022-09-28T17:55:37;11.60;99.90
57390;DHT22;43217;52.694;6.214;2022-09-28T17:58:18;11.60;99.90
57390;DHT22;43217;52.694;6.214;2022-09-28T18:00:45;11.60;99.90
57390;DHT22;43217;52.694;6.214;2022-09-28T18:03:16;11.50;99.90
57390;DHT22;43217;52.694;6.214;2022-09-28T18:05:43;11.50;99.90
57390;DHT22;43217;52.694;6.214;2022-09-28T18:08:15;11.40;99.90
57390;DHT22;43217;52.694;6.214;2022-09-28T18:10:41;11.40;99.90
57390;DHT22;43217;52.694;6.214;2022-09-28T18:13:07;11.40;99.90
57390;DHT22;43217;52.694;6.214;2022-09-28T18:15:33;11.30;99.90
57390;DHT22;43217;52.694;6.214;2022-09-28T18:17:58;11.30;99.90
57390;DHT22;43217;52.694;6.214;2022-09-28T18:20:25;11.30;99.90
57390;DHT22;43217;52.694;6.214;2022-09-28T18:22:50;11.20;99.90
57390;DHT22;43217;52.694;6.214;2022-09-28T18:25:16;11.10;99.90
57390;DHT22;43217;52.694;6.214;2022-09-28T18:27:41;11.10;99.90
57390;DHT22;43217;52.694;6.214;2022-09-28T18:30:08;11.00;99.90
57390;DHT22;43217;52.694;6.214;2022-09-28T18:32:37;10.90;99.90
57390;DHT22;43217;52.694;6.214;2022-09-28T18:35:07;10.80;99.90
57390;DHT22;43217;52.694;6.214;2022-09-28T18:37:37;10.80;99.90
57390;DHT22;43217;52.694;6.214;2022-09-28T18:40:04;10.80;99.90
57390;DHT22;43217;52.694;6.214;2022-09-28T18:42:30;10.80;99.90
57390;DHT22;43217;52.694;6.214;2022-09-28T18:44:56;10.80;99.90
57390;DHT22;43217;52.694;6.214;2022-09-28T18:47:22;10.80;99.90
57390;DHT22;43217;52.694;6.214;2022-09-28T18:49:47;10.80;99.90
57390;DHT22;43217;52.694;6.214;2022-09-28T18:52:15;10.80;99.90
57390;DHT22;43217;52.694;6.214;2022-09-28T18:54:41;10.70;99.90
57390;DHT22;43217;52.694;6.214;2022-09-28T18:57:07;10.70;99.90
57390;DHT22;43217;52.694;6.214;2022-09-28T18:59:32;10.60;99.90
57390;DHT22;43217;52.694;6.214;2022-09-28T19:01:58;10.60;99.90